KMML/MML METAR and TAF weather

Enter ICAO airport designator
Station Type Date Time Source
KMML METAR 2021/05/14 12:56 UTC NOAA

KMML 141256Z AUTO 18015KT 10SM RA SCT036 OVC060 10/08 A3013 RMK AO2 SLP208 P0002 T01000083


Station Type Date Time Source
KMML Decoded METAR 2021/05/14 12:56 UTC NOAA

Marshall, Southwest Minnesota Regional Airport - Marshall/Ryan Field, MN, United States (KMML) 44-27N 095-49W
May 14, 2021 - 08:56 AM EDT / 2021.05.14 1256 UTC
Wind: from the S (180 degrees) at 17 MPH (15 KT):0
Visibility: 10 mile(s):0
Sky conditions: overcast
Weather: rain
Precipitation last hour: 0.02 inches
Temperature: 50.0 F (10.0 C)
Dew Point: 46.9 F (8.3 C)
Relative Humidity: 89%
Pressure (altimeter): 30.13 in. Hg (1020 hPa)
ob: KMML 141256Z AUTO 18015KT 10SM RA SCT036 OVC060 10/08 A3013 RMK AO2 SLP208 P0002 T01000083
cycle: 13

Station Type Date Time Source
KMML TAF UTC NOAA

Error!

Example: see airport list